createdAt,value
2019-05-25T00:00:21.736Z,22.20
2019-05-25T00:02:56.408Z,22.50
2019-05-25T00:05:30.555Z,22.50
2019-05-25T00:08:04.924Z,22.60
2019-05-25T00:10:39.014Z,22.40
2019-05-25T00:13:13.129Z,22.60
2019-05-25T00:15:47.213Z,22.60
2019-05-25T00:18:20.193Z,22.70
2019-05-25T00:20:54.030Z,22.60
2019-05-25T00:23:28.252Z,22.70
2019-05-25T00:26:02.048Z,22.80
2019-05-25T00:28:35.723Z,22.70
2019-05-25T00:31:09.847Z,22.70
2019-05-25T00:33:43.602Z,22.70
2019-05-25T00:36:17.268Z,22.70
2019-05-25T00:38:51.413Z,22.60
2019-05-25T00:41:25.115Z,22.40
2019-05-25T00:43:59.310Z,22.30
2019-05-25T00:46:33.604Z,21.60
2019-05-25T00:49:07.047Z,21.60
2019-05-25T00:51:40.292Z,21.90
2019-05-25T00:54:27.083Z,21.90
2019-05-25T00:56:49.390Z,21.70
2019-05-25T00:59:23.462Z,22.00
2019-05-25T01:01:57.705Z,22.20
2019-05-25T01:04:31.283Z,22.10
2019-05-25T01:07:04.683Z,21.70
2019-05-25T01:09:38.935Z,21.50
2019-05-25T01:12:13.634Z,21.50
2019-05-25T01:14:47.650Z,21.60
2019-05-25T01:17:21.894Z,21.70
2019-05-25T01:19:56.575Z,21.40
2019-05-25T01:22:30.370Z,21.40
2019-05-25T01:25:04.540Z,21.60
2019-05-25T01:27:37.887Z,21.40
2019-05-25T01:30:11.188Z,21.80
2019-05-25T01:32:44.384Z,22.00
2019-05-25T01:35:18.545Z,21.80
2019-05-25T01:37:52.622Z,21.60
2019-05-25T01:40:25.893Z,21.50
2019-05-25T01:43:00.070Z,21.50
2019-05-25T01:45:34.261Z,21.50
2019-05-25T01:48:08.345Z,21.40
2019-05-25T01:50:42.561Z,21.60
2019-05-25T01:53:16.260Z,21.70
2019-05-25T01:55:50.050Z,21.80
2019-05-25T01:58:24.207Z,21.90
2019-05-25T02:00:58.423Z,22.00
2019-05-25T02:03:32.125Z,22.00
2019-05-25T02:06:05.933Z,22.00
2019-05-25T02:08:39.276Z,22.00
2019-05-25T02:11:13.483Z,22.10
2019-05-25T02:13:47.123Z,22.10
2019-05-25T02:16:21.286Z,21.90
2019-05-25T02:18:55.452Z,22.00
2019-05-25T02:21:29.783Z,22.10
2019-05-25T02:24:03.551Z,22.20
2019-05-25T02:26:37.707Z,22.10
2019-05-25T02:29:11.936Z,22.20
2019-05-25T02:31:45.505Z,22.00
2019-05-25T02:34:19.754Z,22.00
2019-05-25T02:36:53.473Z,21.90
2019-05-25T02:39:27.565Z,21.50
2019-05-25T02:42:00.709Z,21.60
2019-05-25T02:44:34.846Z,21.70
2019-05-25T02:47:08.126Z,21.80
2019-05-25T02:49:41.829Z,21.80
2019-05-25T02:52:16.080Z,21.80
2019-05-25T02:54:49.444Z,21.70
2019-05-25T02:57:23.489Z,21.60
2019-05-25T02:59:57.228Z,21.50
2019-05-25T03:02:31.351Z,21.40
2019-05-25T03:05:04.270Z,21.30
2019-05-25T03:07:39.337Z,21.00
2019-05-25T03:10:12.188Z,20.90
2019-05-25T03:12:52.381Z,20.80
2019-05-25T03:15:26.079Z,20.70
2019-05-25T03:17:59.356Z,20.50
2019-05-25T03:20:32.684Z,21.00
2019-05-25T03:23:06.808Z,21.40
2019-05-25T03:25:49.634Z,21.50
2019-05-25T03:28:16.979Z,21.40
2019-05-25T03:30:51.167Z,21.50
2019-05-25T03:33:24.489Z,21.50
2019-05-25T03:35:58.511Z,21.40
2019-05-25T03:38:32.796Z,21.10
2019-05-25T03:41:06.422Z,20.80
2019-05-25T03:43:39.992Z,21.00
2019-05-25T03:46:13.276Z,21.10
2019-05-25T03:48:46.562Z,21.40
2019-05-25T03:51:20.739Z,21.20
2019-05-25T03:53:54.174Z,21.30
2019-05-25T03:56:28.538Z,21.60
2019-05-25T03:59:02.293Z,21.70
2019-05-25T04:01:35.646Z,21.80
2019-05-25T04:04:08.812Z,21.90
2019-05-25T04:06:42.921Z,21.90
2019-05-25T04:09:16.953Z,21.90
2019-05-25T04:11:50.634Z,21.90
2019-05-25T04:14:24.461Z,22.20
2019-05-25T04:16:58.553Z,22.30
2019-05-25T04:19:32.796Z,22.40
2019-05-25T04:22:06.552Z,22.30
2019-05-25T04:24:40.792Z,22.20
2019-05-25T04:27:14.448Z,22.50
2019-05-25T04:29:48.714Z,22.90
2019-05-25T04:32:22.957Z,23.00
2019-05-25T04:34:57.276Z,23.00
2019-05-25T04:37:30.467Z,22.30
2019-05-25T04:40:03.694Z,21.60
2019-05-25T04:42:36.482Z,21.00
2019-05-25T04:45:11.948Z,20.90
2019-05-25T04:47:45.543Z,21.30
2019-05-25T04:50:20.503Z,21.60
2019-05-25T04:52:54.742Z,21.60
2019-05-25T04:55:28.805Z,21.90
2019-05-25T04:58:02.841Z,21.90
2019-05-25T05:00:36.135Z,22.20
2019-05-25T05:03:10.446Z,22.60
2019-05-25T05:05:44.689Z,22.80
2019-05-25T05:08:18.955Z,23.00
2019-05-25T05:10:53.099Z,23.00
2019-05-25T05:13:27.117Z,23.10
2019-05-25T05:16:00.715Z,23.40
2019-05-25T05:18:34.856Z,23.30
2019-05-25T05:21:08.520Z,23.40
2019-05-25T05:23:42.771Z,23.50
2019-05-25T05:26:16.958Z,23.30
2019-05-25T05:28:51.052Z,23.10
2019-05-25T05:31:24.584Z,22.80
2019-05-25T05:33:58.199Z,22.20
2019-05-25T05:36:33.088Z,22.30
2019-05-25T05:39:08.457Z,22.30
2019-05-25T05:41:43.484Z,21.70
2019-05-25T05:44:20.202Z,21.20
2019-05-25T05:46:57.347Z,21.20
2019-05-25T05:49:32.500Z,21.30
2019-05-25T05:52:07.340Z,21.00
2019-05-25T05:54:44.432Z,21.60
2019-05-25T05:57:17.358Z,21.40
2019-05-25T05:59:51.523Z,21.60
2019-05-25T06:02:25.680Z,21.60
2019-05-25T06:04:59.938Z,21.80
2019-05-25T06:07:34.441Z,21.80
2019-05-25T06:10:10.025Z,22.20
2019-05-25T06:12:44.123Z,21.90
2019-05-25T06:15:18.944Z,22.10
2019-05-25T06:17:53.573Z,21.90
2019-05-25T06:20:27.915Z,22.50
2019-05-25T06:23:03.050Z,21.70
2019-05-25T06:25:37.282Z,21.40
2019-05-25T06:28:10.414Z,21.80
2019-05-25T06:30:44.316Z,21.90
2019-05-25T06:33:17.946Z,23.00
2019-05-25T06:35:51.768Z,23.20
2019-05-25T06:38:26.287Z,23.20
2019-05-25T06:41:00.002Z,23.80
2019-05-25T06:43:34.297Z,23.40
2019-05-25T06:46:08.082Z,23.70
2019-05-25T06:48:41.900Z,24.40
2019-05-25T06:51:16.157Z,24.20
2019-05-25T06:53:49.401Z,23.90
2019-05-25T06:56:23.516Z,23.80
2019-05-25T06:58:57.777Z,24.30
2019-05-25T07:01:31.481Z,24.30
2019-05-25T07:04:05.174Z,23.80
2019-05-25T07:06:39.373Z,23.10
2019-05-25T07:09:12.321Z,23.10
2019-05-25T07:11:45.684Z,23.20
2019-05-25T07:14:19.973Z,22.80
2019-05-25T07:16:54.090Z,22.50
2019-05-25T07:19:28.178Z,22.40
2019-05-25T07:22:02.317Z,22.40
2019-05-25T07:24:36.539Z,22.10
2019-05-25T07:27:10.845Z,23.40
2019-05-25T07:29:44.526Z,23.00
2019-05-25T07:32:18.814Z,23.60
2019-05-25T07:34:52.602Z,23.60
2019-05-25T07:37:26.741Z,23.80
2019-05-25T07:40:00.525Z,23.40
2019-05-25T07:42:34.621Z,23.10
2019-05-25T07:45:09.267Z,23.80
2019-05-25T07:47:43.007Z,24.30
2019-05-25T07:50:17.332Z,25.00
2019-05-25T07:52:50.131Z,25.20
2019-05-25T07:55:24.415Z,25.70
2019-05-25T07:57:56.775Z,25.20
2019-05-25T08:00:30.078Z,24.50
2019-05-25T08:03:03.940Z,24.40
2019-05-25T08:05:38.125Z,24.30
2019-05-25T08:08:11.876Z,24.80
2019-05-25T08:10:46.096Z,24.90
2019-05-25T08:13:19.916Z,25.70
2019-05-25T08:15:52.796Z,25.40
2019-05-25T08:18:25.735Z,25.70
2019-05-25T08:20:58.636Z,26.10
2019-05-25T08:23:31.215Z,26.10
2019-05-25T08:26:03.668Z,26.10
2019-05-25T08:28:37.478Z,26.50
2019-05-25T08:31:09.955Z,26.90
2019-05-25T08:33:42.339Z,27.40
2019-05-25T08:36:14.813Z,27.30
2019-05-25T08:38:48.111Z,26.80
2019-05-25T08:41:21.361Z,26.30
2019-05-25T08:43:54.211Z,26.00
2019-05-25T08:46:27.097Z,26.20
2019-05-25T08:49:00.042Z,26.40
2019-05-25T08:51:32.902Z,26.80
2019-05-25T08:54:07.287Z,26.60
2019-05-25T08:56:41.416Z,26.80
2019-05-25T08:59:14.818Z,27.20
2019-05-25T09:01:47.721Z,27.20
2019-05-25T09:04:20.954Z,27.10
2019-05-25T09:06:53.855Z,27.10
2019-05-25T09:09:27.245Z,27.40
2019-05-25T09:11:59.694Z,27.60
2019-05-25T09:14:33.638Z,27.90
2019-05-25T09:17:06.995Z,28.20
2019-05-25T09:19:41.242Z,28.10
2019-05-25T09:22:15.475Z,28.00
2019-05-25T09:24:49.742Z,28.20
2019-05-25T09:27:23.524Z,28.20
2019-05-25T09:29:57.816Z,27.20
2019-05-25T09:32:31.535Z,27.30
2019-05-25T09:35:05.211Z,26.90
2019-05-25T09:37:39.347Z,26.80
2019-05-25T09:40:12.793Z,27.20
2019-05-25T09:42:47.226Z,27.30
2019-05-25T09:45:21.673Z,26.60
2019-05-25T09:47:54.972Z,26.20
2019-05-25T09:50:28.758Z,25.60
2019-05-25T09:53:01.974Z,25.90
2019-05-25T09:55:36.268Z,26.60
2019-05-25T09:58:09.846Z,27.40
2019-05-25T10:00:43.448Z,27.50
2019-05-25T10:03:17.720Z,27.80
2019-05-25T10:05:51.697Z,28.10
2019-05-25T10:08:25.705Z,28.10
2019-05-25T10:11:00.050Z,28.10
2019-05-25T10:13:33.708Z,28.20
2019-05-25T10:16:07.573Z,28.50
2019-05-25T10:18:41.759Z,28.40
2019-05-25T10:21:15.143Z,28.10
2019-05-25T10:23:49.155Z,27.90
2019-05-25T10:26:23.463Z,27.80
2019-05-25T10:28:57.320Z,27.70
2019-05-25T10:31:31.116Z,27.90
2019-05-25T10:34:04.876Z,28.00
2019-05-25T10:36:38.570Z,27.60
2019-05-25T10:39:13.248Z,27.60
2019-05-25T10:41:47.234Z,27.50
2019-05-25T10:44:20.859Z,28.10
2019-05-25T10:46:54.944Z,28.50
2019-05-25T10:49:29.091Z,28.30
2019-05-25T10:52:03.209Z,28.10
2019-05-25T10:54:37.322Z,28.20
2019-05-25T10:57:13.349Z,28.00
2019-05-25T10:59:52.759Z,27.60
2019-05-25T11:02:23.138Z,27.70
2019-05-25T11:05:16.148Z,28.00
2019-05-25T11:07:50.059Z,27.70
2019-05-25T11:10:23.984Z,27.30
2019-05-25T11:12:57.369Z,27.80
2019-05-25T11:15:31.334Z,28.30
2019-05-25T11:18:04.909Z,28.60
2019-05-25T11:20:39.140Z,28.70
2019-05-25T11:23:12.406Z,28.70
2019-05-25T11:25:46.233Z,28.80
2019-05-25T11:28:20.471Z,28.80
2019-05-25T11:30:54.722Z,28.70
2019-05-25T11:33:27.994Z,28.90
2019-05-25T11:36:01.773Z,28.50
2019-05-25T11:38:35.992Z,28.50
2019-05-25T11:41:09.775Z,28.80
2019-05-25T11:43:43.455Z,28.40
2019-05-25T11:46:17.697Z,28.10
2019-05-25T11:48:51.908Z,28.10
2019-05-25T11:51:26.101Z,27.70
2019-05-25T11:54:00.339Z,27.50
2019-05-25T11:56:34.122Z,28.10
2019-05-25T11:59:07.413Z,28.40
2019-05-25T12:01:41.039Z,28.60
2019-05-25T12:04:15.149Z,29.10
2019-05-25T12:06:49.376Z,29.80
2019-05-25T12:09:23.206Z,30.40
2019-05-25T12:11:56.386Z,30.40
2019-05-25T12:14:30.565Z,31.00
2019-05-25T12:17:04.342Z,31.20
2019-05-25T12:19:38.606Z,31.60
2019-05-25T12:22:12.699Z,31.70
2019-05-25T12:24:46.961Z,31.70
2019-05-25T12:27:20.748Z,31.80
2019-05-25T12:29:54.768Z,31.60
2019-05-25T12:32:28.894Z,31.40
2019-05-25T12:35:02.958Z,31.10
2019-05-25T12:37:36.645Z,30.90
2019-05-25T12:40:10.518Z,31.20
2019-05-25T12:42:45.842Z,30.20
2019-05-25T12:45:19.762Z,30.60
2019-05-25T12:47:52.913Z,31.10
2019-05-25T12:50:26.304Z,31.60
2019-05-25T12:53:00.333Z,31.80
2019-05-25T12:55:34.153Z,32.20
2019-05-25T12:58:08.324Z,32.40
2019-05-25T13:00:55.238Z,32.10
2019-05-25T13:03:16.571Z,32.30
2019-05-25T13:05:50.251Z,32.00
2019-05-25T13:08:24.537Z,31.80
2019-05-25T13:10:58.623Z,31.70
2019-05-25T13:13:35.017Z,31.10
2019-05-25T13:16:08.732Z,31.40
2019-05-25T13:18:42.434Z,31.60
2019-05-25T13:21:16.639Z,32.10
2019-05-25T13:23:49.837Z,31.90
2019-05-25T13:26:23.904Z,32.00
2019-05-25T13:28:58.153Z,32.10
2019-05-25T13:31:31.346Z,31.80
2019-05-25T13:34:06.292Z,31.80
2019-05-25T13:36:39.967Z,32.30
2019-05-25T13:39:13.668Z,32.60
2019-05-25T13:41:47.684Z,32.50
2019-05-25T13:44:22.046Z,32.70
2019-05-25T13:46:56.122Z,32.30
2019-05-25T13:49:29.612Z,32.50
2019-05-25T13:52:04.321Z,32.50
2019-05-25T13:54:38.640Z,33.00
2019-05-25T13:57:12.684Z,33.60
2019-05-25T13:59:46.764Z,33.60
2019-05-25T14:02:20.877Z,33.40
2019-05-25T14:04:54.144Z,33.30
2019-05-25T14:07:28.336Z,33.10
2019-05-25T14:10:02.618Z,32.70
2019-05-25T14:12:36.226Z,32.50
2019-05-25T14:15:09.582Z,32.50
2019-05-25T14:17:43.761Z,32.20
2019-05-25T14:20:18.393Z,31.90
2019-05-25T14:22:51.969Z,31.70
2019-05-25T14:25:25.799Z,31.50
2019-05-25T14:27:59.311Z,31.50
2019-05-25T14:30:33.449Z,31.10
2019-05-25T14:33:07.110Z,31.00
2019-05-25T14:35:41.335Z,30.80
2019-05-25T14:38:15.108Z,30.50
2019-05-25T14:40:49.221Z,30.10
2019-05-25T14:43:23.046Z,30.00
2019-05-25T14:45:57.128Z,30.10
2019-05-25T14:48:30.966Z,30.20
2019-05-25T14:51:04.715Z,29.80
2019-05-25T14:53:38.041Z,29.90
2019-05-25T14:56:12.042Z,30.40
2019-05-25T14:58:45.931Z,30.80
2019-05-25T15:01:20.088Z,30.90
2019-05-25T15:03:54.463Z,30.40
2019-05-25T15:06:28.721Z,30.30
2019-05-25T15:09:02.537Z,29.70
2019-05-25T15:11:36.644Z,29.70
2019-05-25T15:14:10.731Z,29.80
2019-05-25T15:16:45.010Z,29.10
2019-05-25T15:19:18.993Z,29.20
2019-05-25T15:21:52.667Z,29.80
2019-05-25T15:24:26.505Z,29.70
2019-05-25T15:26:59.674Z,29.50
2019-05-25T15:29:33.392Z,29.50
2019-05-25T15:32:19.680Z,29.80
2019-05-25T15:34:42.263Z,30.50
2019-05-25T15:37:15.932Z,30.50
2019-05-25T15:39:49.842Z,30.00
2019-05-25T15:42:23.621Z,30.60
2019-05-25T15:44:57.642Z,30.60
2019-05-25T15:47:31.020Z,29.90
2019-05-25T15:50:05.452Z,29.70
2019-05-25T15:52:39.305Z,30.00
2019-05-25T15:55:13.720Z,29.50
2019-05-25T15:57:47.771Z,29.10
2019-05-25T16:00:23.824Z,28.50
2019-05-25T16:02:57.572Z,27.90
2019-05-25T16:05:31.103Z,27.30
2019-05-25T16:08:05.864Z,26.80
2019-05-25T16:10:39.953Z,27.10
2019-05-25T16:13:13.808Z,27.00
2019-05-25T16:15:47.495Z,26.80
2019-05-25T16:18:20.714Z,26.60
2019-05-25T16:20:54.702Z,26.70
2019-05-25T16:23:28.851Z,26.80
2019-05-25T16:26:02.420Z,27.80
2019-05-25T16:28:36.363Z,28.60
2019-05-25T16:31:10.001Z,28.60
2019-05-25T16:33:43.491Z,28.50
2019-05-25T16:36:17.684Z,28.70
2019-05-25T16:38:51.720Z,28.60
2019-05-25T16:41:25.773Z,28.80
2019-05-25T16:43:59.824Z,29.10
2019-05-25T16:46:33.456Z,29.70
2019-05-25T16:49:06.967Z,29.00
2019-05-25T16:51:40.628Z,28.40
2019-05-25T16:54:14.217Z,27.60
2019-05-25T16:56:48.079Z,27.30
2019-05-25T16:59:22.031Z,27.20
2019-05-25T17:01:55.985Z,26.80
2019-05-25T17:04:29.932Z,27.10
2019-05-25T17:07:04.289Z,27.40
2019-05-25T17:09:37.410Z,27.40
2019-05-25T17:12:10.677Z,27.60
2019-05-25T17:14:45.901Z,27.70
2019-05-25T17:17:19.436Z,28.50
2019-05-25T17:19:53.353Z,27.90
2019-05-25T17:22:27.502Z,27.80
2019-05-25T17:25:01.459Z,28.30
2019-05-25T17:27:34.559Z,28.30
2019-05-25T17:30:07.880Z,27.70
2019-05-25T17:32:40.645Z,27.20
2019-05-25T17:35:13.269Z,26.80
2019-05-25T17:37:46.608Z,27.40
2019-05-25T17:40:19.131Z,27.40
2019-05-25T17:42:52.587Z,27.30
2019-05-25T17:45:25.997Z,27.20
2019-05-25T17:47:59.423Z,27.50
2019-05-25T17:50:31.738Z,27.70
2019-05-25T17:53:05.495Z,28.10
2019-05-25T17:55:38.821Z,28.10
2019-05-25T17:58:11.631Z,27.50
2019-05-25T18:00:47.916Z,27.10
2019-05-25T18:03:21.254Z,26.90
2019-05-25T18:05:53.921Z,27.50
2019-05-25T18:08:26.850Z,27.70
2019-05-25T18:10:59.396Z,27.50
2019-05-25T18:13:32.837Z,27.70
2019-05-25T18:16:05.291Z,27.80
2019-05-25T18:18:38.697Z,27.40
2019-05-25T18:21:11.368Z,27.10
2019-05-25T18:23:44.229Z,27.10
2019-05-25T18:26:17.910Z,27.20
2019-05-25T18:28:51.827Z,27.00
2019-05-25T18:31:25.031Z,27.50
2019-05-25T18:33:59.087Z,27.80
2019-05-25T18:36:32.935Z,27.60
2019-05-25T18:39:08.818Z,27.90
2019-05-25T18:41:42.763Z,28.30
2019-05-25T18:44:16.591Z,28.30
2019-05-25T18:46:50.642Z,28.40
2019-05-25T18:49:24.710Z,28.00
2019-05-25T18:51:58.010Z,27.70
2019-05-25T18:54:31.981Z,27.50
2019-05-25T18:57:09.318Z,27.00
2019-05-25T18:59:41.647Z,26.80
2019-05-25T19:02:15.851Z,26.80
2019-05-25T19:04:59.002Z,26.70
2019-05-25T19:07:24.877Z,26.90
2019-05-25T19:09:58.419Z,26.50
2019-05-25T19:12:32.720Z,26.20
2019-05-25T19:15:06.286Z,26.20
2019-05-25T19:17:40.334Z,26.30
2019-05-25T19:20:20.785Z,26.30
2019-05-25T19:22:50.351Z,26.70
2019-05-25T19:25:24.690Z,27.20
2019-05-25T19:27:57.619Z,27.40
2019-05-25T19:30:31.287Z,26.70
2019-05-25T19:33:04.094Z,27.00
2019-05-25T19:35:37.083Z,27.10
2019-05-25T19:38:09.917Z,26.50
2019-05-25T19:40:44.360Z,26.50
2019-05-25T19:43:16.936Z,26.90
2019-05-25T19:45:49.835Z,27.30
2019-05-25T19:48:22.328Z,26.80
2019-05-25T19:50:56.282Z,26.60
2019-05-25T19:53:29.908Z,26.30
2019-05-25T19:56:02.715Z,26.30
2019-05-25T19:58:35.507Z,26.20
2019-05-25T20:01:08.626Z,25.70
2019-05-25T20:03:42.027Z,25.60
2019-05-25T20:06:15.100Z,25.30
2019-05-25T20:08:51.580Z,25.10
2019-05-25T20:11:24.336Z,25.50
2019-05-25T20:13:57.760Z,26.10
2019-05-25T20:16:30.867Z,26.60
2019-05-25T20:19:03.628Z,27.00
2019-05-25T20:21:37.674Z,27.30
2019-05-25T20:24:10.259Z,27.40
2019-05-25T20:26:43.299Z,26.90
2019-05-25T20:29:16.071Z,26.50
2019-05-25T20:31:48.811Z,26.60
2019-05-25T20:34:22.301Z,26.80
2019-05-25T20:36:54.881Z,26.90
2019-05-25T20:39:28.174Z,26.80
2019-05-25T20:42:01.457Z,27.00
2019-05-25T20:44:34.284Z,27.20
2019-05-25T20:47:06.878Z,27.20
2019-05-25T20:49:40.309Z,27.20
2019-05-25T20:52:13.368Z,27.40
2019-05-25T20:54:45.820Z,27.30
2019-05-25T20:57:19.325Z,27.40
2019-05-25T20:59:52.403Z,27.30
2019-05-25T21:02:25.459Z,27.30
2019-05-25T21:04:59.212Z,27.30
2019-05-25T21:07:32.532Z,27.30
2019-05-25T21:10:06.330Z,27.30
2019-05-25T21:12:39.707Z,27.20
2019-05-25T21:15:13.220Z,27.20
2019-05-25T21:17:46.040Z,27.20
2019-05-25T21:20:20.272Z,27.10
2019-05-25T21:22:54.139Z,26.90
2019-05-25T21:25:27.538Z,26.70
2019-05-25T21:28:00.899Z,26.70
2019-05-25T21:30:33.524Z,26.60
2019-05-25T21:33:07.431Z,26.60
2019-05-25T21:35:39.868Z,26.70
2019-05-25T21:38:11.810Z,26.50
2019-05-25T21:40:44.715Z,26.60
2019-05-25T21:43:16.646Z,26.60
2019-05-25T21:45:49.165Z,26.50
2019-05-25T21:48:23.161Z,26.60
2019-05-25T21:50:56.835Z,26.60
2019-05-25T21:53:31.597Z,26.40
2019-05-25T21:56:05.295Z,26.40
2019-05-25T21:58:39.087Z,26.30
2019-05-25T22:01:12.403Z,26.10
2019-05-25T22:03:46.354Z,26.00
2019-05-25T22:06:24.264Z,26.00
2019-05-25T22:08:55.956Z,26.10
2019-05-25T22:11:29.939Z,26.00
2019-05-25T22:14:03.587Z,25.90
2019-05-25T22:16:37.552Z,25.80
2019-05-25T22:19:11.170Z,26.00
2019-05-25T22:21:46.168Z,25.90
2019-05-25T22:24:19.435Z,25.90
2019-05-25T22:26:53.029Z,25.80
2019-05-25T22:29:26.695Z,25.80
2019-05-25T22:32:00.653Z,25.70
2019-05-25T22:34:34.708Z,25.70
2019-05-25T22:37:08.875Z,25.70
2019-05-25T22:39:42.744Z,25.80
2019-05-25T22:42:16.883Z,25.80
2019-05-25T22:44:50.998Z,25.60
2019-05-25T22:47:25.140Z,25.40
2019-05-25T22:49:58.439Z,25.40
2019-05-25T22:52:32.124Z,25.50
2019-05-25T22:55:05.825Z,25.50
2019-05-25T22:57:39.953Z,25.60
2019-05-25T23:00:13.849Z,25.60
2019-05-25T23:02:48.081Z,25.60
2019-05-25T23:05:21.874Z,25.50
2019-05-25T23:07:55.566Z,25.40
2019-05-25T23:10:28.775Z,25.20
2019-05-25T23:13:03.236Z,25.30
2019-05-25T23:15:37.340Z,25.10
2019-05-25T23:18:11.644Z,25.00
2019-05-25T23:20:45.837Z,24.80
2019-05-25T23:23:19.885Z,25.00
2019-05-25T23:25:54.182Z,25.10
2019-05-25T23:28:28.139Z,25.10
2019-05-25T23:31:01.081Z,24.80
2019-05-25T23:33:34.351Z,24.50
2019-05-25T23:36:08.436Z,24.20
2019-05-25T23:38:42.068Z,24.40
2019-05-25T23:41:15.737Z,24.40
2019-05-25T23:43:50.086Z,24.60
2019-05-25T23:46:24.223Z,24.60
2019-05-25T23:48:57.897Z,24.00
2019-05-25T23:51:32.046Z,24.30
2019-05-25T23:54:06.102Z,24.50
2019-05-25T23:56:40.342Z,24.50
2019-05-25T23:59:14.104Z,24.20
